Maike D — V2FO4 — position and weather

sailwx.info

Track history (hours):
 
Tides and Currents Weather Stations Pressure Air Temp Water Temp Dewpoint Dewpoint Depression Visibility Wind Speed Wind Dir Waves Ship Positions

Maike D

Last reported at 2015-Mar-04 02:34 UTC. Time now 2015-Mar-04 04:21 UTC.
Position N 50°59' E 001°19'.

Length 133 m; draft 6.1 m.

Type: Ship (hazmat cat A). MMSI: 305739000.

Date/timePositionNaut miles runAvg speedWind from/ knotsBaromVisibWave heightAir tempDewpointWater temp
2015-Mar-04 02:34N 50°59' E 001°19'1414.3
2015-Mar-04 01:33N 51°08' E 001°37'1312.9
2015-Mar-04 00:33N 51°18' E 001°50'1211.8
2015-Mar-03 23:32N 51°24' E 002°07'1313.0
2015-Mar-03 22:31N 51°22' E 002°27'1212.3
2015-Mar-03 21:33N 51°22' E 002°47'1514.5
2015-Mar-03 20:33N 51°24' E 003°10'1514.9
2015-Mar-03 19:33N 51°26' E 003°33'1211.8
2015-Mar-03 18:34N 51°21' E 003°50'1111.4
2015-Mar-03 17:34N 51°22' E 004°08'9 8.8
2015-Mar-03 16:34N 51°16' E 004°18'1 1.4
2015-Mar-03 15:33N 51°16' E 004°16'2 1.5
2015-Mar-03 14:31N 51°15' E 004°14'0 0.0
2015-Mar-03 13:31N 51°15' E 004°14'0 0.0
2015-Mar-03 12:28N 51°15' E 004°14'0 0.0
2015-Mar-03 11:31N 51°15' E 004°14'0 0.0
2015-Mar-03 10:31N 51°15' E 004°14'0 0.0
2015-Mar-03 09:31N 51°15' E 004°14'0 0.0
2015-Mar-03 08:31N 51°15' E 004°14'0 0.0
2015-Mar-03 07:31N 51°15' E 004°14'0 0.0
2015-Mar-03 06:31N 51°15' E 004°14'0 0.0
2015-Mar-03 05:31N 51°15' E 004°14'0 0.0
2015-Mar-03 04:31N 51°15' E 004°14'0 0.0
2015-Mar-03 03:31N 51°15' E 004°14'0 0.0
2015-Mar-03 02:34N 51°15' E 004°14'0 0.0
2015-Mar-03 01:27N 51°15' E 004°14'0 0.0
2015-Mar-03 00:30N 51°15' E 004°14'0 0.0
2015-Mar-02 23:33N 51°15' E 004°14'0 0.0
2015-Mar-02 22:33N 51°15' E 004°14'0 0.0
2015-Mar-02 21:33N 51°15' E 004°14'0 0.0
2015-Mar-02 20:33N 51°15' E 004°14'0 0.0
2015-Mar-02 19:21N 51°15' E 004°14'0 0.0
2015-Mar-02 18:30N 51°15' E 004°14'0 0.0
2015-Mar-02 17:33N 51°15' E 004°14'0 0.0
2015-Mar-02 16:33N 51°15' E 004°14'0 0.0
2015-Mar-02 15:24N 51°15' E 004°14'0 0.0
2015-Mar-02 14:30N 51°15' E 004°14'0 0.0
2015-Mar-02 13:33N 51°15' E 004°14'0 0.0
2015-Mar-02 12:33N 51°15' E 004°14'0 0.0
2015-Mar-02 11:30N 51°15' E 004°14'0 0.0
2015-Mar-02 10:33N 51°15' E 004°14'0 0.0
2015-Mar-02 09:33N 51°15' E 004°14'0 0.0
2015-Mar-02 08:33N 51°15' E 004°14'0 0.0
2015-Mar-02 07:33N 51°15' E 004°14'0 0.0
2015-Mar-02 06:33N 51°15' E 004°14'0 0.0
2015-Mar-02 05:33N 51°15' E 004°14'0 0.3
2015-Mar-02 04:33N 51°16' E 004°14'2 1.7
2015-Mar-02 03:34N 51°16' E 004°17'2 2.1
2015-Mar-02 02:33N 51°17' E 004°19'9 8.6
2015-Mar-02 01:33N 51°22' E 004°08'9 8.9
2015-Mar-02 00:33N 51°21' E 003°54'1212.2
2015-Mar-01 23:34N 51°26' E 003°36'1815.0
2015-Mar-01 22:24N 51°24' E 003°08'1315.3
2015-Mar-01 21:34N 51°22' E 002°47'6 6.0
2015-Mar-01 20:33N 51°26' E 002°40'3 2.8
2015-Mar-01 19:28N 51°23' E 002°39'1110.3
2015-Mar-01 18:24N 51°19' E 002°22'1412.9
2015-Mar-01 17:21N 51°12' E 002°04'1013.2
2015-Mar-01 16:34N 51°08' E 001°48'1812.7
2015-Mar-01 15:08N 50°54' E 001°30'34011.9
2015-Feb-28 10:28N 47°09' W 004°59'261 8.7
2015-Feb-27 04:27N 43°21' W 001°56'6 6.5
2015-Feb-27 03:29N 43°26' W 002°01'442 9.0
2015-Feb-25 02:33N 50°37' E 000°29'1414.4
2015-Feb-25 01:33N 50°44' E 000°49'1715.5
2015-Feb-25 00:28N 50°54' E 001°10'1617.7
2015-Feb-24 23:34N 51°05' E 001°29'1818.1
2015-Feb-24 22:33N 51°17' E 001°50'1313.3
2015-Feb-24 21:33N 51°22' E 002°10'1515.1
2015-Feb-24 20:33N 51°23' E 002°34'1414.0
2015-Feb-24 19:33N 51°23' E 002°56'1515.1
2015-Feb-24 18:33N 51°24' E 003°20'1212.4
2015-Feb-24 17:34N 51°26' E 003°40'1110.9
2015-Feb-24 16:34N 51°23' E 003°57'9 9.2
2015-Feb-24 15:33N 51°24' E 004°12'9 8.7
2015-Feb-24 14:34N 51°16' E 004°17'0 0.4
2015-Feb-24 13:31N 51°16' E 004°16'1 1.5
2015-Feb-24 12:32N 51°15' E 004°14'0 0.0
2015-Feb-24 11:26N 51°15' E 004°14'0 0.0
2015-Feb-24 10:32N 51°15' E 004°14'0 0.0
2015-Feb-24 09:32N 51°15' E 004°14'0 0.0
2015-Feb-24 08:29N 51°15' E 004°14'0 0.0
2015-Feb-24 07:32N 51°15' E 004°14'0 0.0
2015-Feb-24 06:32N 51°15' E 004°14'0 0.0
2015-Feb-24 05:32N 51°15' E 004°14'0 0.0
2015-Feb-24 04:29N 51°15' E 004°14'0 0.0
2015-Feb-24 03:32N 51°15' E 004°14'0 0.0
2015-Feb-24 02:32N 51°15' E 004°14'0 0.0
2015-Feb-24 01:32N 51°15' E 004°14'0 0.0
2015-Feb-24 00:32N 51°15' E 004°14'0 0.0
2015-Feb-23 23:23N 51°15' E 004°14'0 0.0
2015-Feb-23 22:29N 51°15' E 004°14'0 0.0
2015-Feb-23 21:32N 51°15' E 004°14'0 0.0
2015-Feb-23 20:32N 51°15' E 004°14'0 0.0
2015-Feb-23 19:31N 51°15' E 004°14'0 0.0
2015-Feb-23 18:25N 51°15' E 004°14'0 0.0
2015-Feb-23 17:25N 51°15' E 004°14'0 0.0
2015-Feb-23 16:31N 51°15' E 004°14'0 0.0
2015-Feb-23 15:31N 51°15' E 004°14'0 0.0
2015-Feb-23 14:25N 51°15' E 004°14'0 0.0
2015-Feb-23 13:31N 51°15' E 004°14'0 0.0
2015-Feb-23 12:31N 51°15' E 004°14'0 0.0
2015-Feb-23 11:22N 51°15' E 004°14'0 0.0
2015-Feb-23 10:25N 51°15' E 004°14'0 0.0
2015-Feb-23 09:31N 51°15' E 004°14'2 2.0
2015-Feb-23 08:34N 51°16' E 004°17'3 2.5
2015-Feb-23 07:33N 51°15' E 004°20'3 2.6
2015-Feb-23 06:34N 51°13' E 004°23'0 0.0
2015-Feb-23 05:34N 51°13' E 004°23'0 0.0
2015-Feb-23 04:33N 51°13' E 004°23'0 0.0
2015-Feb-23 03:33N 51°13' E 004°23'0 0.0
2015-Feb-23 02:33N 51°13' E 004°23'0 0.0
2015-Feb-23 01:33N 51°13' E 004°23'0 0.0
2015-Feb-23 00:33N 51°13' E 004°23'0 0.0
2015-Feb-22 23:33N 51°13' E 004°23'0 0.0
2015-Feb-22 22:33N 51°13' E 004°23'0 0.0
2015-Feb-22 21:33N 51°13' E 004°23'0 0.0
2015-Feb-22 20:33N 51°13' E 004°23'0 0.0
2015-Feb-22 19:33N 51°13' E 004°23'0 0.0
2015-Feb-22 18:33N 51°13' E 004°23'0 0.0
2015-Feb-22 17:33N 51°13' E 004°23'0 0.0
2015-Feb-22 16:33N 51°13' E 004°23'0 0.0
2015-Feb-22 15:33N 51°13' E 004°23'0 0.0
2015-Feb-22 14:33N 51°13' E 004°23'0 0.0
2015-Feb-22 13:33N 51°13' E 004°23'0 0.0
2015-Feb-22 12:30N 51°13' E 004°23'0 0.0
2015-Feb-22 11:33N 51°13' E 004°23'0 0.0
2015-Feb-22 10:33N 51°13' E 004°23'0 0.0
2015-Feb-22 09:33N 51°13' E 004°23'0 0.0
2015-Feb-22 08:33N 51°13' E 004°23'0 0.0
2015-Feb-22 07:33N 51°13' E 004°23'0 0.0
2015-Feb-22 06:33N 51°13' E 004°23'0 0.0
2015-Feb-22 05:33N 51°13' E 004°23'0 0.0
2015-Feb-22 04:33N 51°13' E 004°23'0 0.0
2015-Feb-22 03:33N 51°13' E 004°23'  
Track history (hours):
 
Tides and Currents Weather Stations Pressure Air Temp Water Temp Dewpoint Dewpoint Depression Visibility Wind Speed Wind Dir Waves Ship Positions

Maike D

Last reported at 2015-Mar-04 02:34 UTC. Time now 2015-Mar-04 04:21 UTC.
Position N 50°59' E 001°19'.

Length 133 m; draft 6.1 m.

Type: Ship (hazmat cat A). MMSI: 305739000.

Date/timePositionNaut miles runAvg speedWind from/ knotsBaromVisibWave heightAir tempDewpointWater temp
2015-Mar-04 02:34N 50°59' E 001°19'1414.3
2015-Mar-04 01:33N 51°08' E 001°37'1312.9
2015-Mar-04 00:33N 51°18' E 001°50'1211.8
2015-Mar-03 23:32N 51°24' E 002°07'1313.0
2015-Mar-03 22:31N 51°22' E 002°27'1212.3
2015-Mar-03 21:33N 51°22' E 002°47'1514.5
2015-Mar-03 20:33N 51°24' E 003°10'1514.9
2015-Mar-03 19:33N 51°26' E 003°33'1211.8
2015-Mar-03 18:34N 51°21' E 003°50'1111.4
2015-Mar-03 17:34N 51°22' E 004°08'9 8.8
2015-Mar-03 16:34N 51°16' E 004°18'1 1.4
2015-Mar-03 15:33N 51°16' E 004°16'2 1.5
2015-Mar-03 14:31N 51°15' E 004°14'0 0.0
2015-Mar-03 13:31N 51°15' E 004°14'0 0.0
2015-Mar-03 12:28N 51°15' E 004°14'0 0.0
2015-Mar-03 11:31N 51°15' E 004°14'0 0.0
2015-Mar-03 10:31N 51°15' E 004°14'0 0.0
2015-Mar-03 09:31N 51°15' E 004°14'0 0.0
2015-Mar-03 08:31N 51°15' E 004°14'0 0.0
2015-Mar-03 07:31N 51°15' E 004°14'0 0.0
2015-Mar-03 06:31N 51°15' E 004°14'0 0.0
2015-Mar-03 05:31N 51°15' E 004°14'0 0.0
2015-Mar-03 04:31N 51°15' E 004°14'0 0.0
2015-Mar-03 03:31N 51°15' E 004°14'0 0.0
2015-Mar-03 02:34N 51°15' E 004°14'0 0.0
2015-Mar-03 01:27N 51°15' E 004°14'0 0.0
2015-Mar-03 00:30N 51°15' E 004°14'0 0.0
2015-Mar-02 23:33N 51°15' E 004°14'0 0.0
2015-Mar-02 22:33N 51°15' E 004°14'0 0.0
2015-Mar-02 21:33N 51°15' E 004°14'0 0.0
2015-Mar-02 20:33N 51°15' E 004°14'0 0.0
2015-Mar-02 19:21N 51°15' E 004°14'0 0.0
2015-Mar-02 18:30N 51°15' E 004°14'0 0.0
2015-Mar-02 17:33N 51°15' E 004°14'0 0.0
2015-Mar-02 16:33N 51°15' E 004°14'0 0.0
2015-Mar-02 15:24N 51°15' E 004°14'0 0.0
2015-Mar-02 14:30N 51°15' E 004°14'0 0.0
2015-Mar-02 13:33N 51°15' E 004°14'0 0.0
2015-Mar-02 12:33N 51°15' E 004°14'0 0.0
2015-Mar-02 11:30N 51°15' E 004°14'0 0.0
2015-Mar-02 10:33N 51°15' E 004°14'0 0.0
2015-Mar-02 09:33N 51°15' E 004°14'0 0.0
2015-Mar-02 08:33N 51°15' E 004°14'0 0.0
2015-Mar-02 07:33N 51°15' E 004°14'0 0.0
2015-Mar-02 06:33N 51°15' E 004°14'0 0.0
2015-Mar-02 05:33N 51°15' E 004°14'0 0.3
2015-Mar-02 04:33N 51°16' E 004°14'2 1.7
2015-Mar-02 03:34N 51°16' E 004°17'2 2.1
2015-Mar-02 02:33N 51°17' E 004°19'9 8.6
2015-Mar-02 01:33N 51°22' E 004°08'9 8.9
2015-Mar-02 00:33N 51°21' E 003°54'1212.2
2015-Mar-01 23:34N 51°26' E 003°36'1815.0
2015-Mar-01 22:24N 51°24' E 003°08'1315.3
2015-Mar-01 21:34N 51°22' E 002°47'6 6.0
2015-Mar-01 20:33N 51°26' E 002°40'3 2.8
2015-Mar-01 19:28N 51°23' E 002°39'1110.3
2015-Mar-01 18:24N 51°19' E 002°22'1412.9
2015-Mar-01 17:21N 51°12' E 002°04'1013.2
2015-Mar-01 16:34N 51°08' E 001°48'1812.7
2015-Mar-01 15:08N 50°54' E 001°30'34011.9
2015-Feb-28 10:28N 47°09' W 004°59'261 8.7
2015-Feb-27 04:27N 43°21' W 001°56'6 6.5
2015-Feb-27 03:29N 43°26' W 002°01'442 9.0
2015-Feb-25 02:33N 50°37' E 000°29'1414.4
2015-Feb-25 01:33N 50°44' E 000°49'1715.5
2015-Feb-25 00:28N 50°54' E 001°10'1617.7
2015-Feb-24 23:34N 51°05' E 001°29'1818.1
2015-Feb-24 22:33N 51°17' E 001°50'1313.3
2015-Feb-24 21:33N 51°22' E 002°10'1515.1
2015-Feb-24 20:33N 51°23' E 002°34'1414.0
2015-Feb-24 19:33N 51°23' E 002°56'1515.1
2015-Feb-24 18:33N 51°24' E 003°20'1212.4
2015-Feb-24 17:34N 51°26' E 003°40'1110.9
2015-Feb-24 16:34N 51°23' E 003°57'9 9.2
2015-Feb-24 15:33N 51°24' E 004°12'9 8.7
2015-Feb-24 14:34N 51°16' E 004°17'0 0.4
2015-Feb-24 13:31N 51°16' E 004°16'1 1.5
2015-Feb-24 12:32N 51°15' E 004°14'0 0.0
2015-Feb-24 11:26N 51°15' E 004°14'0 0.0
2015-Feb-24 10:32N 51°15' E 004°14'0 0.0
2015-Feb-24 09:32N 51°15' E 004°14'0 0.0
2015-Feb-24 08:29N 51°15' E 004°14'0 0.0
2015-Feb-24 07:32N 51°15' E 004°14'0 0.0
2015-Feb-24 06:32N 51°15' E 004°14'0 0.0
2015-Feb-24 05:32N 51°15' E 004°14'0 0.0
2015-Feb-24 04:29N 51°15' E 004°14'0 0.0
2015-Feb-24 03:32N 51°15' E 004°14'0 0.0
2015-Feb-24 02:32N 51°15' E 004°14'0 0.0
2015-Feb-24 01:32N 51°15' E 004°14'0 0.0
2015-Feb-24 00:32N 51°15' E 004°14'0 0.0
2015-Feb-23 23:23N 51°15' E 004°14'0 0.0
2015-Feb-23 22:29N 51°15' E 004°14'0 0.0
2015-Feb-23 21:32N 51°15' E 004°14'0 0.0
2015-Feb-23 20:32N 51°15' E 004°14'0 0.0
2015-Feb-23 19:31N 51°15' E 004°14'0 0.0
2015-Feb-23 18:25N 51°15' E 004°14'0 0.0
2015-Feb-23 17:25N 51°15' E 004°14'0 0.0
2015-Feb-23 16:31N 51°15' E 004°14'0 0.0
2015-Feb-23 15:31N 51°15' E 004°14'0 0.0
2015-Feb-23 14:25N 51°15' E 004°14'0 0.0
2015-Feb-23 13:31N 51°15' E 004°14'0 0.0
2015-Feb-23 12:31N 51°15' E 004°14'0 0.0
2015-Feb-23 11:22N 51°15' E 004°14'0 0.0
2015-Feb-23 10:25N 51°15' E 004°14'0 0.0
2015-Feb-23 09:31N 51°15' E 004°14'2 2.0
2015-Feb-23 08:34N 51°16' E 004°17'3 2.5
2015-Feb-23 07:33N 51°15' E 004°20'3 2.6
2015-Feb-23 06:34N 51°13' E 004°23'0 0.0
2015-Feb-23 05:34N 51°13' E 004°23'0 0.0
2015-Feb-23 04:33N 51°13' E 004°23'0 0.0
2015-Feb-23 03:33N 51°13' E 004°23'0 0.0
2015-Feb-23 02:33N 51°13' E 004°23'0 0.0
2015-Feb-23 01:33N 51°13' E 004°23'0 0.0
2015-Feb-23 00:33N 51°13' E 004°23'0 0.0
2015-Feb-22 23:33N 51°13' E 004°23'0 0.0
2015-Feb-22 22:33N 51°13' E 004°23'0 0.0
2015-Feb-22 21:33N 51°13' E 004°23'0 0.0
2015-Feb-22 20:33N 51°13' E 004°23'0 0.0
2015-Feb-22 19:33N 51°13' E 004°23'0 0.0
2015-Feb-22 18:33N 51°13' E 004°23'0 0.0
2015-Feb-22 17:33N 51°13' E 004°23'0 0.0
2015-Feb-22 16:33N 51°13' E 004°23'0 0.0
2015-Feb-22 15:33N 51°13' E 004°23'0 0.0
2015-Feb-22 14:33N 51°13' E 004°23'0 0.0
2015-Feb-22 13:33N 51°13' E 004°23'0 0.0
2015-Feb-22 12:30N 51°13' E 004°23'0 0.0
2015-Feb-22 11:33N 51°13' E 004°23'0 0.0
2015-Feb-22 10:33N 51°13' E 004°23'0 0.0
2015-Feb-22 09:33N 51°13' E 004°23'0 0.0
2015-Feb-22 08:33N 51°13' E 004°23'0 0.0
2015-Feb-22 07:33N 51°13' E 004°23'0 0.0
2015-Feb-22 06:33N 51°13' E 004°23'0 0.0
2015-Feb-22 05:33N 51°13' E 004°23'0 0.0
2015-Feb-22 04:33N 51°13' E 004°23'0 0.0
2015-Feb-22 03:33N 51°13' E 004°23'  

Dump ship's entire track history